createdAt,value
2023-05-21T00:01:31.221Z,97121.28
2023-05-21T00:03:42.173Z,97122.97
2023-05-21T00:05:50.507Z,97123.22
2023-05-21T00:07:58.440Z,97121.13
2023-05-21T00:10:11.140Z,97120.97
2023-05-21T00:12:19.230Z,97113.81
2023-05-21T00:14:27.322Z,97114.13
2023-05-21T00:16:35.451Z,97114.69
2023-05-21T00:18:43.544Z,97110.72
2023-05-21T00:20:51.609Z,97109.59
2023-05-21T00:22:59.674Z,97109.31
2023-05-21T00:25:10.954Z,97111.44
2023-05-21T00:27:21.071Z,97104.53
2023-05-21T00:29:30.384Z,97102.28
2023-05-21T00:31:38.668Z,97089.19
2023-05-21T00:33:46.708Z,97092.97
2023-05-21T00:35:57.042Z,97090.88
2023-05-21T00:38:07.677Z,97086.50
2023-05-21T00:40:19.073Z,97081.31
2023-05-21T00:42:30.932Z,97074.69
2023-05-21T00:44:41.718Z,97078.50
2023-05-21T00:46:53.860Z,97075.66
2023-05-21T00:49:02.281Z,97081.84
2023-05-21T00:51:10.440Z,97075.66
2023-05-21T00:53:20.172Z,97069.19
2023-05-21T00:55:31.191Z,97076.66
2023-05-21T00:57:40.341Z,97075.66
2023-05-21T00:59:48.519Z,97071.88
2023-05-21T01:01:57.074Z,97067.91
2023-05-21T01:04:05.407Z,97076.06
2023-05-21T01:06:14.505Z,97065.25
2023-05-21T01:08:23.951Z,97073.97
2023-05-21T01:10:34.753Z,97070.72
2023-05-21T01:12:46.582Z,97068.03
2023-05-21T01:14:56.497Z,97069.78
2023-05-21T01:17:05.479Z,97070.44
2023-05-21T01:19:18.693Z,97067.03
2023-05-21T01:21:28.740Z,97063.41
2023-05-21T01:23:39.575Z,97058.19
2023-05-21T01:25:48.129Z,97060.16
2023-05-21T01:27:56.343Z,97053.81
2023-05-21T01:30:04.848Z,97055.22
2023-05-21T01:32:23.602Z,97046.09
2023-05-21T01:34:38.473Z,97052.44
2023-05-21T01:36:52.827Z,97048.91
2023-05-21T01:39:06.677Z,97044.41
2023-05-21T01:41:17.661Z,97043.56
2023-05-21T01:43:27.012Z,97048.75
2023-05-21T01:45:38.010Z,97047.19
2023-05-21T01:47:50.270Z,97039.63
2023-05-21T01:49:59.693Z,97046.25
2023-05-21T01:52:08.687Z,97036.53
2023-05-21T01:54:19.598Z,97046.09
2023-05-21T01:56:28.786Z,97038.06
2023-05-21T01:58:37.433Z,97041.00
2023-05-21T02:00:46.910Z,97041.88
2023-05-21T02:02:55.019Z,97038.06
2023-05-21T02:05:04.156Z,97033.28
2023-05-21T02:07:14.564Z,97026.25
2023-05-21T02:09:25.150Z,97024.16
2023-05-21T02:11:33.211Z,97023.59
2023-05-21T02:13:42.910Z,97028.50
2023-05-21T02:16:03.292Z,97033.03
2023-05-21T02:18:12.915Z,97028.63
2023-05-21T02:20:22.639Z,97036.13
2023-05-21T02:22:35.339Z,97028.25
2023-05-21T02:24:45.985Z,97035.28
2023-05-21T02:26:53.961Z,97030.50
2023-05-21T02:29:03.740Z,97021.59
2023-05-21T02:31:11.937Z,97015.72
2023-05-21T02:33:21.800Z,97018.09
2023-05-21T02:35:30.019Z,97014.03
2023-05-21T02:37:40.655Z,97010.38
2023-05-21T02:39:51.765Z,97007.94
2023-05-21T02:42:00.108Z,97008.25
2023-05-21T02:44:12.253Z,97003.16
2023-05-21T02:46:20.808Z,97004.44
2023-05-21T02:48:29.208Z,96998.13
2023-05-21T02:50:37.811Z,96996.84
2023-05-21T02:52:46.192Z,96998.13
2023-05-21T02:54:56.979Z,96988.00
2023-05-21T02:57:05.669Z,96988.25
2023-05-21T02:59:13.662Z,96987.81
2023-05-21T03:01:21.978Z,96980.66
2023-05-21T03:03:32.646Z,96982.63
2023-05-21T03:05:41.290Z,96974.88
2023-05-21T03:07:49.685Z,96966.19
2023-05-21T03:10:00.470Z,96973.63
2023-05-21T03:12:09.472Z,96971.09
2023-05-21T03:14:17.583Z,96961.78
2023-05-21T03:16:25.670Z,96967.84
2023-05-21T03:18:33.828Z,96965.34
2023-05-21T03:20:44.082Z,96961.81
2023-05-21T03:22:53.104Z,96961.38
2023-05-21T03:25:04.934Z,96968.25
2023-05-21T03:27:13.073Z,96957.16
2023-05-21T03:29:22.085Z,96947.00
2023-05-21T03:31:30.881Z,96942.66
2023-05-21T03:33:49.630Z,96941.78
2023-05-21T03:36:10.815Z,96929.41
2023-05-21T03:38:19.696Z,96935.84
2023-05-21T03:40:31.049Z,96943.50
2023-05-21T03:42:39.061Z,96938.09
2023-05-21T03:44:52.213Z,96938.38
2023-05-21T03:47:19.402Z,96945.13
2023-05-21T03:49:28.538Z,96934.00
2023-05-21T03:51:38.613Z,96936.97
2023-05-21T03:53:48.135Z,96945.28
2023-05-21T03:55:59.107Z,96936.44
2023-05-21T03:58:07.446Z,96944.00
2023-05-21T04:00:16.304Z,96943.28
2023-05-21T04:02:25.014Z,96939.47
2023-05-21T04:04:34.082Z,96930.06
2023-05-21T04:06:44.765Z,96937.09
2023-05-21T04:08:53.885Z,96936.13
2023-05-21T04:11:04.754Z,96945.44
2023-05-21T04:13:12.988Z,96949.06
2023-05-21T04:15:21.381Z,96961.16
2023-05-21T04:17:34.843Z,96962.00
2023-05-21T04:19:43.725Z,96959.75
2023-05-21T04:21:52.206Z,96963.88
2023-05-21T04:24:01.079Z,96972.75
2023-05-21T04:26:35.531Z,96970.94
2023-05-21T04:28:46.229Z,96976.28
2023-05-21T04:30:56.705Z,96984.56
2023-05-21T04:33:08.684Z,96995.25
2023-05-21T04:35:18.184Z,96994.31
2023-05-21T04:37:26.293Z,96986.16
2023-05-21T04:39:35.025Z,97000.78
2023-05-21T04:41:45.715Z,97006.97
2023-05-21T04:43:55.489Z,97006.25
2023-05-21T04:46:07.129Z,97006.56
2023-05-21T04:48:17.926Z,97017.81
2023-05-21T04:50:25.995Z,97022.88
2023-05-21T04:52:35.039Z,97031.06
2023-05-21T04:54:43.319Z,97033.88
2023-05-21T04:56:53.937Z,97036.69
2023-05-21T04:59:05.581Z,97040.47
2023-05-21T05:01:15.456Z,97038.38
2023-05-21T05:03:23.667Z,97048.09
2023-05-21T05:05:35.157Z,97046.41
2023-05-21T05:07:44.948Z,97045.97
2023-05-21T05:09:52.977Z,97050.47
2023-05-21T05:12:05.284Z,97052.44
2023-05-21T05:14:14.933Z,97064.97
2023-05-21T05:16:29.979Z,97065.81
2023-05-21T05:18:40.679Z,97065.09
2023-05-21T05:20:49.444Z,97077.88
2023-05-21T05:22:57.951Z,97076.69
2023-05-21T05:25:06.731Z,97088.66
2023-05-21T05:27:18.151Z,97083.56
2023-05-21T05:29:26.069Z,97102.41
2023-05-21T05:31:35.657Z,97097.25
2023-05-21T05:33:46.441Z,97092.47
2023-05-21T05:35:55.488Z,97105.81
2023-05-21T05:38:03.598Z,97106.69
2023-05-21T05:40:12.446Z,97111.41
2023-05-21T05:42:24.830Z,97119.63
2023-05-21T05:44:33.633Z,97117.88
2023-05-21T05:46:43.206Z,97124.78
2023-05-21T05:48:54.643Z,97119.75
2023-05-21T05:51:08.687Z,97120.34
2023-05-21T05:53:19.026Z,97116.56
2023-05-21T05:55:27.630Z,97126.19
2023-05-21T05:57:38.985Z,97137.09
2023-05-21T05:59:53.613Z,97146.13
2023-05-21T06:02:10.859Z,97146.81
2023-05-21T06:04:21.508Z,97151.84
2023-05-21T06:06:29.745Z,97153.09
2023-05-21T06:08:41.469Z,97155.06
2023-05-21T06:10:49.810Z,97153.06
2023-05-21T06:13:00.748Z,97159.56
2023-05-21T06:15:12.181Z,97159.53
2023-05-21T06:17:21.571Z,97149.09
2023-05-21T06:19:31.143Z,97150.22
2023-05-21T06:21:39.551Z,97148.72
2023-05-21T06:23:49.465Z,97142.94
2023-05-21T06:25:57.594Z,97151.25
2023-05-21T06:28:12.833Z,97147.13
2023-05-21T06:30:21.334Z,97136.44
2023-05-21T06:32:29.386Z,97145.91
2023-05-21T06:34:37.579Z,97155.78
2023-05-21T06:36:47.862Z,97142.63
2023-05-21T06:38:56.038Z,97148.34
2023-05-21T06:41:05.696Z,97142.38
2023-05-21T06:43:30.653Z,97142.53
2023-05-21T06:45:39.991Z,97147.44
2023-05-21T06:48:02.593Z,97142.94
2023-05-21T06:50:14.046Z,97151.63
2023-05-21T06:52:33.210Z,97154.69
2023-05-21T06:54:42.811Z,97155.56
2023-05-21T06:56:50.805Z,97159.50
2023-05-21T06:59:01.749Z,97152.84
2023-05-21T07:01:10.319Z,97155.44
2023-05-21T07:03:20.432Z,97155.00
2023-05-21T07:05:30.620Z,97164.56
2023-05-21T07:07:47.323Z,97190.19
2023-05-21T07:09:58.239Z,97182.13
2023-05-21T07:12:07.487Z,97186.63
2023-05-21T07:14:18.775Z,97190.66
2023-05-21T07:16:26.887Z,97201.16
2023-05-21T07:18:35.228Z,97195.84
2023-05-21T07:20:43.509Z,97201.16
2023-05-21T07:22:54.988Z,97207.03
2023-05-21T07:25:03.717Z,97218.97
2023-05-21T07:27:25.417Z,97216.75
2023-05-21T07:29:39.355Z,97227.59
2023-05-21T07:31:47.876Z,97236.00
2023-05-21T07:33:59.586Z,97242.03
2023-05-21T07:36:13.683Z,97235.13
2023-05-21T07:38:22.763Z,97209.97
2023-05-21T07:40:32.489Z,97221.06
2023-05-21T07:42:43.763Z,97227.31
2023-05-21T07:44:56.382Z,97225.91
2023-05-21T07:47:06.425Z,97233.13
2023-05-21T07:49:19.645Z,97221.44
2023-05-21T07:51:31.519Z,97209.28
2023-05-21T07:53:39.583Z,97202.66
2023-05-21T07:55:54.485Z,97189.91
2023-05-21T07:58:11.533Z,97189.91
2023-05-21T08:00:25.465Z,97188.84
2023-05-21T08:02:37.958Z,97170.75
2023-05-21T08:04:49.365Z,97184.28
2023-05-21T08:07:02.057Z,97198.78
2023-05-21T08:09:16.184Z,97181.59
2023-05-21T08:11:24.932Z,97181.31
2023-05-21T08:13:33.009Z,97176.84
2023-05-21T08:15:43.801Z,97181.25
2023-05-21T08:17:53.276Z,97180.19
2023-05-21T08:20:01.506Z,97180.66
2023-05-21T08:22:12.106Z,97170.75
2023-05-21T08:24:23.588Z,97175.78
2023-05-21T08:26:32.587Z,97173.34
2023-05-21T08:28:41.405Z,97173.91
2023-05-21T08:30:52.566Z,97189.66
2023-05-21T08:33:03.366Z,97185.44
2023-05-21T08:35:14.159Z,97187.09
2023-05-21T08:37:34.237Z,97181.47
2023-05-21T08:40:02.396Z,97185.38
2023-05-21T08:42:36.487Z,97182.66
2023-05-21T08:44:51.371Z,97162.69
2023-05-21T08:47:17.201Z,97175.44
2023-05-21T08:49:30.037Z,97168.75
2023-05-21T08:51:38.911Z,97165.31
2023-05-21T08:53:49.992Z,97172.38
2023-05-21T08:56:00.170Z,97165.84
2023-05-21T08:58:28.488Z,97181.56
2023-05-21T09:00:40.190Z,97195.00
2023-05-21T09:02:54.867Z,97184.44
2023-05-21T09:05:07.456Z,97183.28
2023-05-21T09:07:15.635Z,97182.63
2023-05-21T09:09:52.478Z,97185.84
2023-05-21T09:12:02.436Z,97192.69
2023-05-21T09:14:12.138Z,97184.09
2023-05-21T09:16:34.768Z,97200.09
2023-05-21T09:18:45.795Z,97198.00
2023-05-21T09:21:00.542Z,97200.22
2023-05-21T09:23:17.157Z,97206.69
2023-05-21T09:25:30.098Z,97203.25
2023-05-21T09:27:44.954Z,97207.66
2023-05-21T09:29:52.979Z,97214.63
2023-05-21T09:32:02.076Z,97229.34
2023-05-21T09:34:14.281Z,97224.50
2023-05-21T09:36:24.529Z,97215.31
2023-05-21T09:38:32.891Z,97208.09
2023-05-21T09:40:48.845Z,97222.25
2023-05-21T09:42:58.751Z,97232.34
2023-05-21T09:45:08.128Z,97224.59
2023-05-21T09:47:16.636Z,97219.13
2023-05-21T09:49:32.638Z,97236.09
2023-05-21T09:51:44.854Z,97237.22
2023-05-21T09:53:58.600Z,97238.75
2023-05-21T09:56:11.726Z,97222.88
2023-05-21T09:58:21.046Z,97220.72
2023-05-21T10:00:32.413Z,97208.16
2023-05-21T10:02:43.164Z,97208.50
2023-05-21T10:04:57.332Z,97219.38
2023-05-21T10:07:05.324Z,97230.84
2023-05-21T10:09:14.686Z,97221.28
2023-05-21T10:11:26.669Z,97226.44
2023-05-21T10:13:37.570Z,97225.25
2023-05-21T10:15:51.062Z,97229.88
2023-05-21T10:18:05.375Z,97226.88
2023-05-21T10:20:16.692Z,97223.44
2023-05-21T10:22:30.664Z,97221.38
2023-05-21T10:24:40.117Z,97222.63
2023-05-21T10:26:49.061Z,97217.31
2023-05-21T10:29:00.613Z,97213.28
2023-05-21T10:31:09.924Z,97184.88
2023-05-21T10:33:19.487Z,97200.59
2023-05-21T10:35:30.578Z,97202.25
2023-05-21T10:37:38.782Z,97196.50
2023-05-21T10:39:49.672Z,97197.06
2023-05-21T10:42:08.006Z,97205.44
2023-05-21T10:44:26.907Z,97193.75
2023-05-21T10:47:03.844Z,97195.81
2023-05-21T10:49:28.360Z,97192.72
2023-05-21T10:51:53.131Z,97192.94
2023-05-21T10:54:33.119Z,97190.50
2023-05-21T10:56:49.826Z,97191.22
2023-05-21T10:59:22.565Z,97178.75
2023-05-21T11:01:34.363Z,97178.06
2023-05-21T11:03:44.950Z,97178.28
2023-05-21T11:05:59.697Z,97164.97
2023-05-21T11:08:24.200Z,97192.66
2023-05-21T11:10:45.605Z,97177.56
2023-05-21T11:13:13.677Z,97176.09
2023-05-21T11:15:21.860Z,97164.16
2023-05-21T11:17:44.901Z,97187.50
2023-05-21T11:19:56.181Z,97168.69
2023-05-21T11:22:13.901Z,97167.94
2023-05-21T11:24:28.508Z,97167.16
2023-05-21T11:27:07.162Z,97181.13
2023-05-21T11:29:15.510Z,97175.53
2023-05-21T11:31:28.059Z,97173.63
2023-05-21T11:33:36.999Z,97168.13
2023-05-21T11:36:01.114Z,97163.41
2023-05-21T11:38:12.283Z,97173.69
2023-05-21T11:40:27.438Z,97170.25
2023-05-21T11:42:37.457Z,97174.03
2023-05-21T11:44:53.558Z,97170.81
2023-05-21T11:47:02.937Z,97167.22
2023-05-21T11:49:12.030Z,97170.50
2023-05-21T11:51:20.659Z,97171.03
2023-05-21T11:53:28.920Z,97167.28
2023-05-21T11:55:47.583Z,97169.03
2023-05-21T11:58:01.831Z,97165.22
2023-05-21T12:00:19.504Z,97159.00
2023-05-21T12:02:30.345Z,97165.34
2023-05-21T12:04:39.861Z,97173.53
2023-05-21T12:06:50.891Z,97166.53
2023-05-21T12:08:59.231Z,97162.63
2023-05-21T12:11:12.155Z,97168.66
2023-05-21T12:13:20.261Z,97166.31
2023-05-21T12:15:30.071Z,97167.97
2023-05-21T12:17:38.072Z,97160.47
2023-05-21T12:19:46.974Z,97166.94
2023-05-21T12:21:55.168Z,97163.03
2023-05-21T12:24:03.236Z,97167.63
2023-05-21T12:26:14.008Z,97171.28
2023-05-21T12:28:24.867Z,97165.38
2023-05-21T12:30:33.124Z,97178.19
2023-05-21T12:32:46.172Z,97177.88
2023-05-21T12:34:55.338Z,97179.34
2023-05-21T12:37:05.514Z,97176.56
2023-05-21T12:39:14.011Z,97162.81
2023-05-21T12:41:25.102Z,97172.41
2023-05-21T12:43:35.263Z,97180.53
2023-05-21T12:45:43.632Z,97186.25
2023-05-21T12:47:56.572Z,97192.38
2023-05-21T12:50:06.932Z,97195.28
2023-05-21T12:52:21.470Z,97191.13
2023-05-21T12:54:37.982Z,97183.56
2023-05-21T12:56:51.871Z,97181.84
2023-05-21T12:59:00.234Z,97175.59
2023-05-21T13:01:10.381Z,97176.63
2023-05-21T13:03:18.536Z,97182.81
2023-05-21T13:05:27.011Z,97176.69
2023-05-21T13:07:37.111Z,97166.34
2023-05-21T13:09:45.311Z,97183.00
2023-05-21T13:11:56.028Z,97184.00
2023-05-21T13:14:06.270Z,97188.50
2023-05-21T13:16:18.910Z,97182.66
2023-05-21T13:18:27.319Z,97189.16
2023-05-21T13:20:54.386Z,97174.66
2023-05-21T13:23:06.697Z,97174.94
2023-05-21T13:25:18.836Z,97186.41
2023-05-21T13:27:31.259Z,97182.31
2023-05-21T13:29:39.459Z,97180.84
2023-05-21T13:31:49.428Z,97189.84
2023-05-21T13:33:57.492Z,97191.50
2023-05-21T13:36:05.848Z,97188.59
2023-05-21T13:38:16.283Z,97180.88
2023-05-21T13:40:25.696Z,97182.06
2023-05-21T13:42:38.696Z,97175.00
2023-05-21T13:44:46.942Z,97171.56
2023-05-21T13:46:55.525Z,97177.66
2023-05-21T13:49:03.864Z,97185.81
2023-05-21T13:51:17.591Z,97191.50
2023-05-21T13:53:31.988Z,97195.22
2023-05-21T13:55:40.423Z,97190.28
2023-05-21T13:57:51.418Z,97194.47
2023-05-21T14:00:00.226Z,97191.09
2023-05-21T14:02:10.258Z,97184.63
2023-05-21T14:04:18.238Z,97189.59
2023-05-21T14:06:26.302Z,97183.91
2023-05-21T14:08:34.469Z,97186.19
2023-05-21T14:10:42.536Z,97181.19
2023-05-21T14:12:53.355Z,97193.69
2023-05-21T14:15:03.114Z,97177.56
2023-05-21T14:17:12.018Z,97179.06
2023-05-21T14:19:24.184Z,97176.09
2023-05-21T14:21:32.828Z,97178.28
2023-05-21T14:23:40.947Z,97173.66
2023-05-21T14:25:49.259Z,97175.88
2023-05-21T14:28:00.236Z,97175.56
2023-05-21T14:30:09.666Z,97168.91
2023-05-21T14:32:18.617Z,97171.38
2023-05-21T14:34:28.739Z,97176.59
2023-05-21T14:36:36.769Z,97169.38
2023-05-21T14:38:44.947Z,97170.56
2023-05-21T14:40:54.447Z,97170.13
2023-05-21T14:43:05.943Z,97164.97
2023-05-21T14:45:19.540Z,97166.66
2023-05-21T14:47:27.722Z,97163.94
2023-05-21T14:49:36.209Z,97164.72
2023-05-21T14:51:45.193Z,97159.72
2023-05-21T14:53:53.100Z,97170.81
2023-05-21T14:56:01.724Z,97155.19
2023-05-21T14:58:13.636Z,97163.69
2023-05-21T15:00:21.937Z,97157.94
2023-05-21T15:02:30.135Z,97161.16
2023-05-21T15:04:40.951Z,97158.34
2023-05-21T15:07:09.841Z,97162.03
2023-05-21T15:09:31.729Z,97164.88
2023-05-21T15:11:40.314Z,97165.00
2023-05-21T15:13:51.103Z,97165.22
2023-05-21T15:15:59.722Z,97147.41
2023-05-21T15:18:08.054Z,97147.81
2023-05-21T15:20:17.066Z,97144.78
2023-05-21T15:22:27.207Z,97148.78
2023-05-21T15:24:35.184Z,97147.69
2023-05-21T15:26:43.857Z,97144.53
2023-05-21T15:28:54.487Z,97146.13
2023-05-21T15:31:04.452Z,97135.41
2023-05-21T15:33:14.706Z,97138.78
2023-05-21T15:35:23.488Z,97139.75
2023-05-21T15:37:33.216Z,97129.13
2023-05-21T15:39:41.256Z,97133.13
2023-05-21T15:41:49.472Z,97137.56
2023-05-21T15:44:00.283Z,97138.00
2023-05-21T15:46:08.606Z,97131.38
2023-05-21T15:48:22.760Z,97144.78
2023-05-21T15:50:30.754Z,97130.81
2023-05-21T15:52:38.686Z,97125.78
2023-05-21T15:54:51.432Z,97128.13
2023-05-21T15:56:59.969Z,97138.75
2023-05-21T15:59:10.661Z,97138.31
2023-05-21T16:01:21.691Z,97135.59
2023-05-21T16:03:29.851Z,97133.47
2023-05-21T16:05:38.372Z,97135.56
2023-05-21T16:07:53.445Z,97136.56
2023-05-21T16:10:01.579Z,97134.50
2023-05-21T16:12:10.278Z,97124.03
2023-05-21T16:14:20.991Z,97128.59
2023-05-21T16:16:29.316Z,97124.53
2023-05-21T16:18:37.260Z,97123.06
2023-05-21T16:20:47.590Z,97130.16
2023-05-21T16:22:58.281Z,97126.84
2023-05-21T16:25:07.432Z,97133.72
2023-05-21T16:27:17.986Z,97126.00
2023-05-21T16:29:29.432Z,97115.31
2023-05-21T16:31:38.743Z,97111.34
2023-05-21T16:33:46.906Z,97109.41
2023-05-21T16:35:55.376Z,97113.09
2023-05-21T16:38:05.629Z,97103.41
2023-05-21T16:40:17.678Z,97107.34
2023-05-21T16:42:27.096Z,97111.75
2023-05-21T16:44:38.286Z,97108.22
2023-05-21T16:46:49.052Z,97105.03
2023-05-21T16:48:57.134Z,97100.66
2023-05-21T16:51:11.528Z,97102.69
2023-05-21T16:53:24.171Z,97108.94
2023-05-21T16:55:33.337Z,97106.84
2023-05-21T16:57:41.551Z,97106.22
2023-05-21T16:59:52.207Z,97110.59
2023-05-21T17:02:00.325Z,97114.38
2023-05-21T17:04:14.209Z,97111.19
2023-05-21T17:06:23.512Z,97114.13
2023-05-21T17:08:32.971Z,97108.06
2023-05-21T17:10:41.147Z,97104.06
2023-05-21T17:12:49.575Z,97101.09
2023-05-21T17:15:01.202Z,97097.09
2023-05-21T17:17:09.593Z,97094.13
2023-05-21T17:19:20.279Z,97093.47
2023-05-21T17:21:29.120Z,97084.78
2023-05-21T17:23:37.546Z,97086.41
2023-05-21T17:25:46.888Z,97083.03
2023-05-21T17:28:00.914Z,97081.75
2023-05-21T17:30:15.271Z,97082.94
2023-05-21T17:32:24.442Z,97084.09
2023-05-21T17:34:35.310Z,97089.47
2023-05-21T17:36:45.147Z,97089.38
2023-05-21T17:38:53.758Z,97085.78
2023-05-21T17:41:02.036Z,97088.59
2023-05-21T17:43:11.552Z,97099.84
2023-05-21T17:45:23.763Z,97095.63
2023-05-21T17:47:36.522Z,97095.00
2023-05-21T17:49:44.680Z,97098.94
2023-05-21T17:51:52.643Z,97090.69
2023-05-21T17:54:04.795Z,97092.03
2023-05-21T17:56:21.217Z,97089.25
2023-05-21T17:58:29.572Z,97088.34
2023-05-21T18:00:40.319Z,97084.69
2023-05-21T18:02:48.530Z,97083.78
2023-05-21T18:04:57.706Z,97084.13
2023-05-21T18:07:06.225Z,97091.13
2023-05-21T18:09:26.801Z,97081.69
2023-05-21T18:11:35.235Z,97083.38
2023-05-21T18:13:44.752Z,97078.50
2023-05-21T18:15:56.432Z,97079.81
2023-05-21T18:18:04.543Z,97081.75
2023-05-21T18:20:14.170Z,97085.56
2023-05-21T18:22:22.299Z,97077.06
2023-05-21T18:24:30.441Z,97084.44
2023-05-21T18:26:38.478Z,97078.59
2023-05-21T18:28:47.028Z,97070.91
2023-05-21T18:31:01.171Z,97084.28
2023-05-21T18:33:14.285Z,97076.63
2023-05-21T18:35:23.123Z,97067.22
2023-05-21T18:37:32.304Z,97060.22
2023-05-21T18:39:40.392Z,97066.31
2023-05-21T18:41:51.649Z,97070.88
2023-05-21T18:44:02.022Z,97073.16
2023-05-21T18:46:13.623Z,97073.75
2023-05-21T18:48:21.907Z,97073.13
2023-05-21T18:50:29.782Z,97072.66
2023-05-21T18:52:39.577Z,97069.78
2023-05-21T18:54:47.679Z,97072.84
2023-05-21T18:57:00.676Z,97081.66
2023-05-21T18:59:09.346Z,97083.22
2023-05-21T19:01:20.534Z,97080.38
2023-05-21T19:03:28.610Z,97079.19
2023-05-21T19:05:37.453Z,97083.44
2023-05-21T19:07:48.638Z,97086.66
2023-05-21T19:09:56.756Z,97089.53
2023-05-21T19:12:05.037Z,97092.91
2023-05-21T19:14:13.062Z,97093.09
2023-05-21T19:16:24.295Z,97087.50
2023-05-21T19:18:33.295Z,97089.53
2023-05-21T19:20:41.292Z,97087.50
2023-05-21T19:22:49.214Z,97094.41
2023-05-21T19:24:58.020Z,97098.44
2023-05-21T19:27:06.240Z,97091.38
2023-05-21T19:29:14.146Z,97095.91
2023-05-21T19:31:25.718Z,97095.88
2023-05-21T19:33:33.857Z,97103.78
2023-05-21T19:35:43.772Z,97094.69
2023-05-21T19:37:51.850Z,97103.25
2023-05-21T19:40:00.120Z,97105.44
2023-05-21T19:42:09.602Z,97098.38
2023-05-21T19:44:17.664Z,97101.41
2023-05-21T19:46:28.558Z,97097.19
2023-05-21T19:48:36.604Z,97107.28
2023-05-21T19:50:44.805Z,97104.06
2023-05-21T19:52:53.980Z,97110.09
2023-05-21T19:55:05.128Z,97111.56
2023-05-21T19:57:13.622Z,97109.69
2023-05-21T19:59:22.045Z,97121.25
2023-05-21T20:01:35.705Z,97108.66
2023-05-21T20:03:45.735Z,97120.41
2023-05-21T20:05:53.657Z,97118.22
2023-05-21T20:08:01.704Z,97123.94
2023-05-21T20:10:22.036Z,97123.69
2023-05-21T20:12:30.626Z,97121.50
2023-05-21T20:14:38.740Z,97120.50
2023-05-21T20:16:49.882Z,97119.69
2023-05-21T20:18:58.502Z,97120.75
2023-05-21T20:21:07.009Z,97121.09
2023-05-21T20:23:17.388Z,97120.91
2023-05-21T20:25:25.803Z,97125.75
2023-05-21T20:27:35.377Z,97126.06
2023-05-21T20:29:44.862Z,97113.25
2023-05-21T20:31:55.619Z,97116.41
2023-05-21T20:34:07.395Z,97116.38
2023-05-21T20:36:17.940Z,97114.53
2023-05-21T20:38:26.378Z,97120.66
2023-05-21T20:40:34.445Z,97125.38
2023-05-21T20:42:45.181Z,97117.00
2023-05-21T20:44:54.470Z,97117.31
2023-05-21T20:47:05.091Z,97119.91
2023-05-21T20:49:13.135Z,97118.53
2023-05-21T20:51:23.963Z,97119.69
2023-05-21T20:53:32.560Z,97117.13
2023-05-21T20:55:44.634Z,97113.78
2023-05-21T20:57:55.417Z,97114.63
2023-05-21T21:00:05.232Z,97117.09
2023-05-21T21:02:16.205Z,97113.47
2023-05-21T21:04:24.819Z,97119.31
2023-05-21T21:06:34.048Z,97124.28
2023-05-21T21:08:46.425Z,97125.75
2023-05-21T21:10:54.526Z,97119.13
2023-05-21T21:13:02.495Z,97121.16
2023-05-21T21:15:12.499Z,97124.84
2023-05-21T21:17:23.643Z,97115.09
2023-05-21T21:19:31.899Z,97123.81
2023-05-21T21:21:39.894Z,97126.38
2023-05-21T21:23:50.359Z,97123.53
2023-05-21T21:25:58.406Z,97122.53
2023-05-21T21:28:06.741Z,97124.63
2023-05-21T21:30:16.017Z,97121.31
2023-05-21T21:32:26.645Z,97118.72
2023-05-21T21:34:34.538Z,97119.03
2023-05-21T21:36:42.544Z,97118.25
2023-05-21T21:38:52.565Z,97113.41
2023-05-21T21:41:00.690Z,97112.63
2023-05-21T21:43:08.693Z,97119.31
2023-05-21T21:45:16.915Z,97110.47
2023-05-21T21:47:27.862Z,97114.59
2023-05-21T21:49:35.975Z,97116.47
2023-05-21T21:51:44.773Z,97121.22
2023-05-21T21:53:52.978Z,97121.34
2023-05-21T21:56:01.150Z,97120.09
2023-05-21T21:58:09.394Z,97115.84
2023-05-21T22:00:19.917Z,97114.13
2023-05-21T22:02:30.574Z,97111.66
2023-05-21T22:04:38.720Z,97124.75
2023-05-21T22:06:48.576Z,97119.94
2023-05-21T22:08:57.116Z,97117.59
2023-05-21T22:11:05.193Z,97113.50
2023-05-21T22:13:14.439Z,97113.97
2023-05-21T22:15:24.694Z,97112.66
2023-05-21T22:17:35.666Z,97115.81
2023-05-21T22:19:44.023Z,97112.03
2023-05-21T22:21:52.118Z,97113.06
2023-05-21T22:24:02.869Z,97106.88
2023-05-21T22:26:11.038Z,97113.75
2023-05-21T22:28:19.750Z,97104.13
2023-05-21T22:30:27.731Z,97106.97
2023-05-21T22:32:38.514Z,97101.22
2023-05-21T22:34:46.845Z,97105.53
2023-05-21T22:36:54.798Z,97109.63
2023-05-21T22:39:03.062Z,97109.63
2023-05-21T22:41:11.448Z,97108.78
2023-05-21T22:43:19.747Z,97112.06
2023-05-21T22:45:29.412Z,97106.88
2023-05-21T22:47:40.037Z,97102.50
2023-05-21T22:49:48.112Z,97096.84
2023-05-21T22:51:58.292Z,97098.53
2023-05-21T22:54:06.465Z,97104.13
2023-05-21T22:56:14.522Z,97103.03
2023-05-21T22:58:24.674Z,97106.13
2023-05-21T23:00:32.694Z,97102.50
2023-05-21T23:02:50.763Z,97097.72
2023-05-21T23:05:01.436Z,97097.69
2023-05-21T23:07:09.698Z,97110.06
2023-05-21T23:09:17.757Z,97106.97
2023-05-21T23:11:26.909Z,97102.91
2023-05-21T23:13:34.906Z,97101.22
2023-05-21T23:15:44.075Z,97100.63
2023-05-21T23:17:56.520Z,97109.13
2023-05-21T23:20:04.933Z,97103.34
2023-05-21T23:22:15.000Z,97102.38
2023-05-21T23:24:23.158Z,97100.78
2023-05-21T23:26:31.403Z,97104.59
2023-05-21T23:28:39.822Z,97105.47
2023-05-21T23:30:48.230Z,97111.41
2023-05-21T23:32:58.797Z,97104.63
2023-05-21T23:35:07.744Z,97103.63
2023-05-21T23:37:15.775Z,97110.53
2023-05-21T23:39:23.921Z,97105.47
2023-05-21T23:41:32.133Z,97102.81
2023-05-21T23:43:40.616Z,97097.31
2023-05-21T23:45:51.869Z,97096.91
2023-05-21T23:48:02.762Z,97099.44
2023-05-21T23:50:14.059Z,97098.88
2023-05-21T23:52:24.265Z,97097.31
2023-05-21T23:54:32.576Z,97091.44
2023-05-21T23:56:40.533Z,97086.25
2023-05-21T23:58:50.550Z,97082.72
